Time;durP1;ratioP1;P1;durP2;ratioP2;P2;SDS_P1;SDS_P2;PMS_P1;PMS_P2;Temp;Humidity;BMP_temperature;BMP_pressure;BME280_temperature;BME280_humidity;BME280_pressure;Samples;Min_cycle;Max_cycle;Signal;HPM_P1;HPM_P2
2023/07/08 00:02:11;;;;;;;;;;;;;;;20.58;42.96;96563.34;4964361;29;19959;-72
2023/07/08 00:04:38;;;;;;;;;;;;;;;20.54;43.19;96556.97;4964708;29;19961;-71
2023/07/08 00:07:04;;;;;;;;;;;;;;;20.50;43.28;96556.75;4964071;29;19963;-71
2023/07/08 00:09:30;;;;;;;;;;;;;;;20.46;43.75;96555.69;4964315;29;19978;-70
2023/07/08 00:11:57;;;;;;;;;;;;;;;20.43;43.31;96550.91;4968115;28;19951;-71
2023/07/08 00:14:23;;;;;;;;;;;;;;;20.40;43.32;96546.94;4968963;29;19974;-71
2023/07/08 00:16:49;;;;;;;;;;;;;;;20.36;43.75;96550.44;4969059;29;19968;-71
2023/07/08 00:19:19;;;;;;;;;;;;;;;20.31;43.54;96555.81;4969161;29;19955;-70
2023/07/08 00:21:45;;;;;;;;;;;;;;;20.27;44.65;96550.25;4951824;29;20016;-76
2023/07/08 00:24:11;;;;;;;;;;;;;;;20.22;44.35;96550.28;4967658;29;19971;-75
2023/07/08 00:26:37;;;;;;;;;;;;;;;20.16;44.35;96548.72;4967809;29;20215;-72
2023/07/08 00:29:09;;;;;;;;;;;;;;;20.11;44.85;96552.22;4951929;29;19967;-72
2023/07/08 00:31:34;;;;;;;;;;;;;;;20.08;44.95;96542.13;4951851;29;19954;-72
2023/07/08 00:34:02;;;;;;;;;;;;;;;20.04;45.08;96541.09;4967638;29;20005;-73
2023/07/08 00:36:29;;;;;;;;;;;;;;;20.00;45.44;96540.03;4951126;29;19966;-71
2023/07/08 00:38:55;;;;;;;;;;;;;;;19.95;45.19;96542.72;4967477;29;19987;-72
2023/07/08 00:41:25;;;;;;;;;;;;;;;19.90;44.69;96538.22;4968485;29;19979;-72
2023/07/08 00:43:52;;;;;;;;;;;;;;;19.87;45.03;96550.22;4951246;29;20135;-76
2023/07/08 00:46:28;;;;;;;;;;;;;;;19.81;45.18;96540.69;4967466;29;19962;-75
2023/07/08 00:49:06;;;;;;;;;;;;;;;19.78;45.50;96540.41;4968499;29;19957;-76
2023/07/08 00:51:33;;;;;;;;;;;;;;;19.73;45.32;96538.59;4967537;29;19964;-76
2023/07/08 00:53:59;;;;;;;;;;;;;;;19.70;45.21;96539.16;4966755;29;19962;-75
2023/07/08 00:56:36;;;;;;;;;;;;;;;19.67;45.05;96540.47;4968103;29;19971;-76
2023/07/08 00:59:14;;;;;;;;;;;;;;;19.62;45.70;96550.31;4968101;29;19989;-72
2023/07/08 01:01:41;;;;;;;;;;;;;;;19.59;45.84;96549.03;4967045;29;19965;-76
2023/07/08 01:04:10;;;;;;;;;;;;;;;19.53;45.93;96550.09;4968113;29;19963;-76
2023/07/08 01:06:39;;;;;;;;;;;;;;;19.50;46.02;96541.88;4966763;29;19987;-76
2023/07/08 01:09:07;;;;;;;;;;;;;;;19.46;46.37;96538.94;4968172;29;19955;-76
2023/07/08 01:11:34;;;;;;;;;;;;;;;19.44;46.40;96551.72;4967279;29;19953;-76
2023/07/08 01:14:01;;;;;;;;;;;;;;;19.41;46.66;96545.09;4968020;29;19961;-76
2023/07/08 01:16:27;;;;;;;;;;;;;;;19.37;46.24;96549.34;4966592;29;20005;-76
2023/07/08 01:18:53;;;;;;;;;;;;;;;19.36;46.45;96547.78;4968184;29;19961;-71
2023/07/08 01:21:30;;;;;;;;;;;;;;;19.34;46.36;96543.78;4966356;28;20141;-76
2023/07/08 01:23:57;;;;;;;;;;;;;;;19.31;46.04;96542.47;4966412;29;19963;-76
2023/07/08 01:26:24;;;;;;;;;;;;;;;19.30;46.23;96540.88;4967689;29;19954;-76
2023/07/08 01:28:51;;;;;;;;;;;;;;;19.29;46.20;96539.28;4967714;29;20140;-77
2023/07/08 01:31:17;;;;;;;;;;;;;;;19.27;46.03;96546.72;4967833;29;19958;-76
2023/07/08 01:33:42;;;;;;;;;;;;;;;19.29;45.58;96552.56;4967768;29;19950;-77
2023/07/08 01:36:10;;;;;;;;;;;;;;;19.29;45.79;96543.81;4967640;29;19957;-71
2023/07/08 01:38:36;;;;;;;;;;;;;;;19.26;46.19;96548.59;4949942;29;19966;-76
2023/07/08 01:41:02;;;;;;;;;;;;;;;19.23;46.86;96546.50;4967325;29;19961;-77
2023/07/08 01:43:28;;;;;;;;;;;;;;;19.20;47.05;96541.69;4967530;29;19974;-76
2023/07/08 01:45:55;;;;;;;;;;;;;;;19.17;46.86;96544.09;4965821;29;20187;-76
2023/07/08 01:48:22;;;;;;;;;;;;;;;19.13;47.60;96537.72;4966349;29;20153;-76
2023/07/08 01:50:54;;;;;;;;;;;;;;;19.11;47.82;96539.84;4967195;29;19968;-77
2023/07/08 01:53:22;;;;;;;;;;;;;;;19.05;47.88;96539.88;4967555;29;19956;-76
2023/07/08 01:55:48;;;;;;;;;;;;;;;19.02;47.56;96545.75;4967025;29;19963;-77
2023/07/08 01:58:14;;;;;;;;;;;;;;;18.99;47.88;96534.84;4965940;29;19964;-71
2023/07/08 02:00:40;;;;;;;;;;;;;;;18.95;48.49;96536.44;4967144;29;19970;-71
2023/07/08 02:03:06;;;;;;;;;;;;;;;18.92;48.52;96543.09;4949771;29;19961;-71
2023/07/08 02:05:31;;;;;;;;;;;;;;;18.91;48.27;96551.34;4967050;29;19961;-71
2023/07/08 02:07:57;;;;;;;;;;;;;;;18.86;48.57;96552.94;4967028;29;19945;-71
2023/07/08 02:10:25;;;;;;;;;;;;;;;18.84;48.83;96560.38;4967247;29;19956;-71
2023/07/08 02:12:51;;;;;;;;;;;;;;;18.82;49.29;96556.41;4967065;29;20220;-76
2023/07/08 02:15:16;;;;;;;;;;;;;;;18.81;48.81;96557.44;4967224;29;19955;-77
2023/07/08 02:17:42;;;;;;;;;;;;;;;18.77;49.39;96551.88;4966883;29;20016;-78
2023/07/08 02:20:08;;;;;;;;;;;;;;;18.75;49.68;96550.53;4966659;29;20172;-76
2023/07/08 02:22:34;;;;;;;;;;;;;;;18.74;49.79;96557.69;4966700;29;20190;-76
2023/07/08 02:25:00;;;;;;;;;;;;;;;18.73;49.95;96557.97;4966712;29;19952;-77
2023/07/08 02:27:26;;;;;;;;;;;;;;;18.70;49.63;96561.16;4966715;29;19997;-77
2023/07/08 02:29:51;;;;;;;;;;;;;;;18.68;49.84;96566.75;4965522;29;19956;-71
2023/07/08 02:32:18;;;;;;;;;;;;;;;18.66;49.71;96567.00;4966709;29;19980;-71
2023/07/08 02:34:44;;;;;;;;;;;;;;;18.65;50.24;96578.69;4964864;28;20134;-71
2023/07/08 02:37:10;;;;;;;;;;;;;;;18.62;50.13;96576.56;4965567;29;19997;-71
2023/07/08 02:39:36;;;;;;;;;;;;;;;18.59;50.32;96585.06;4965599;29;19963;-71
2023/07/08 02:42:02;;;;;;;;;;;;;;;18.57;50.31;96599.69;4965466;29;19958;-71
2023/07/08 02:44:28;;;;;;;;;;;;;;;18.55;50.64;96596.50;4966410;29;20021;-71
2023/07/08 02:46:53;;;;;;;;;;;;;;;18.50;50.60;96591.97;4966179;29;20250;-71
2023/07/08 02:49:19;;;;;;;;;;;;;;;18.49;51.33;96602.88;4965017;29;19974;-75
2023/07/08 02:51:45;;;;;;;;;;;;;;;18.44;50.80;96593.84;4966420;29;20001;-76
2023/07/08 02:54:11;;;;;;;;;;;;;;;18.40;51.55;96581.34;4966368;29;19961;-77
2023/07/08 02:56:37;;;;;;;;;;;;;;;18.36;50.98;96575.75;4964765;29;20010;-77
2023/07/08 02:59:03;;;;;;;;;;;;;;;18.32;50.60;96577.34;4965035;29;19961;-78
2023/07/08 03:01:28;;;;;;;;;;;;;;;18.30;50.47;96578.69;4964985;29;19956;-77
2023/07/08 03:03:58;;;;;;;;;;;;;;;18.25;50.88;96567.00;4964859;29;19963;-77
2023/07/08 03:06:24;;;;;;;;;;;;;;;18.21;50.93;96565.13;4965862;29;19947;-78
2023/07/08 03:08:49;;;;;;;;;;;;;;;18.19;50.90;96572.56;4966302;29;19953;-76
2023/07/08 03:11:15;;;;;;;;;;;;;;;18.16;51.19;96573.06;4966278;29;19952;-71
2023/07/08 03:13:41;;;;;;;;;;;;;;;18.13;51.19;96569.09;4948735;29;19987;-71
2023/07/08 03:16:12;;;;;;;;;;;;;;;18.11;51.82;96565.91;4949138;29;19979;-71
2023/07/08 03:18:45;;;;;;;;;;;;;;;18.11;52.15;96557.16;4965044;29;19979;-71
2023/07/08 03:21:12;;;;;;;;;;;;;;;18.08;52.06;96561.13;4964810;29;20268;-71
2023/07/08 03:23:38;;;;;;;;;;;;;;;18.06;51.91;96557.94;4966084;29;19962;-71
2023/07/08 03:26:04;;;;;;;;;;;;;;;18.05;52.24;96565.09;4966248;29;19952;-73
2023/07/08 03:28:30;;;;;;;;;;;;;;;18.05;51.95;96566.97;4964492;29;19964;-72
2023/07/08 03:30:56;;;;;;;;;;;;;;;18.04;52.55;96562.72;4964609;29;19957;-72
2023/07/08 03:33:22;;;;;;;;;;;;;;;18.03;52.07;96569.88;4964480;29;19942;-72
2023/07/08 03:35:49;;;;;;;;;;;;;;;18.02;52.43;96570.94;4966119;29;20184;-72
2023/07/08 03:38:14;;;;;;;;;;;;;;;18.01;52.62;96571.97;4964898;29;19972;-72
2023/07/08 03:40:40;;;;;;;;;;;;;;;18.02;52.94;96570.16;4966193;29;19959;-71
2023/07/08 03:43:06;;;;;;;;;;;;;;;18.00;53.04;96564.31;4965780;29;19950;-72
2023/07/08 03:45:32;;;;;;;;;;;;;;;18.00;53.01;96570.41;4964691;28;19963;-78
2023/07/08 03:47:58;;;;;;;;;;;;;;;18.00;53.07;96564.31;4968112;29;19956;-77
2023/07/08 03:50:24;;;;;;;;;;;;;;;17.99;52.90;96568.78;4968470;29;19971;-79
2023/07/08 03:52:52;;;;;;;;;;;;;;;17.99;53.88;96566.13;4969392;29;19963;-77
2023/07/08 03:55:18;;;;;;;;;;;;;;;17.99;53.57;96576.75;4968183;29;19957;-77
2023/07/08 03:57:44;;;;;;;;;;;;;;;18.00;53.43;96581.00;4968928;29;19984;-78
2023/07/08 04:00:11;;;;;;;;;;;;;;;18.00;54.69;96575.72;4968138;29;20249;-77
2023/07/08 04:02:41;;;;;;;;;;;;;;;18.03;54.58;96585.78;4952593;29;19954;-77
2023/07/08 04:05:12;;;;;;;;;;;;;;;18.03;55.16;96579.69;4969361;29;20145;-72
2023/07/08 04:07:38;;;;;;;;;;;;;;;18.04;54.97;96591.91;4968242;29;19967;-72
2023/07/08 04:10:04;;;;;;;;;;;;;;;18.05;55.95;96594.28;4968942;29;19962;-73
2023/07/08 04:12:30;;;;;;;;;;;;;;;18.05;56.27;96602.25;4952086;29;19959;-73
2023/07/08 04:14:56;;;;;;;;;;;;;;;18.07;55.42;96590.59;4951985;29;19963;-73
2023/07/08 04:17:23;;;;;;;;;;;;;;;18.08;56.08;96589.50;4967518;29;19965;-72
2023/07/08 04:19:49;;;;;;;;;;;;;;;18.11;56.47;96597.75;4968411;29;20131;-72
2023/07/08 04:22:15;;;;;;;;;;;;;;;18.17;56.58;96590.59;4969474;29;19956;-72
2023/07/08 04:24:40;;;;;;;;;;;;;;;18.22;56.62;96594.06;4968081;29;19960;-72
2023/07/08 04:27:10;;;;;;;;;;;;;;;18.28;55.80;96602.81;4967334;29;19954;-73
2023/07/08 04:29:36;;;;;;;;;;;;;;;18.32;56.33;96603.09;4967508;29;19958;-72
2023/07/08 04:32:02;;;;;;;;;;;;;;;18.35;57.30;96599.91;4967895;29;19983;-72
2023/07/08 04:34:28;;;;;;;;;;;;;;;18.36;56.80;96604.19;4967630;29;19959;-72
2023/07/08 04:36:54;;;;;;;;;;;;;;;18.39;56.41;96593.00;4951724;29;19966;-73
2023/07/08 04:39:20;;;;;;;;;;;;;;;18.45;57.01;96591.97;4967568;29;20128;-71
2023/07/08 04:41:46;;;;;;;;;;;;;;;18.46;57.61;96602.31;4951616;29;19977;-72
2023/07/08 04:44:12;;;;;;;;;;;;;;;18.50;57.48;96612.41;4951804;29;19956;-73
2023/07/08 04:46:44;;;;;;;;;;;;;;;18.55;56.67;96631.03;4966945;29;19964;-72
2023/07/08 04:49:10;;;;;;;;;;;;;;;18.52;56.68;96642.16;4967232;29;19956;-73
2023/07/08 04:51:37;;;;;;;;;;;;;;;18.49;55.96;96640.84;4967081;29;20229;-72
2023/07/08 04:54:03;;;;;;;;;;;;;;;18.44;56.54;96635.53;4967032;29;19957;-73
2023/07/08 04:56:39;;;;;;;;;;;;;;;18.41;57.76;96636.81;4968200;28;19971;-72
2023/07/08 04:59:05;;;;;;;;;;;;;;;18.29;57.61;96636.31;4967494;29;19969;-71
2023/07/08 05:01:31;;;;;;;;;;;;;;;18.29;59.26;96630.16;4968323;29;19958;-77
2023/07/08 05:03:57;;;;;;;;;;;;;;;18.32;59.15;96641.06;4967904;29;20281;-76
2023/07/08 05:06:23;;;;;;;;;;;;;;;18.38;58.67;96640.03;4968149;29;19988;-76
2023/07/08 05:08:49;;;;;;;;;;;;;;;18.45;59.13;96634.44;4967922;29;19962;-77
2023/07/08 05:11:15;;;;;;;;;;;;;;;18.58;60.10;96635.78;4967920;29;19958;-76
2023/07/08 05:13:40;;;;;;;;;;;;;;;18.72;59.94;96628.91;4966597;29;19965;-77
2023/07/08 05:16:06;;;;;;;;;;;;;;;18.82;58.09;96630.81;4968190;29;19961;-77
2023/07/08 05:18:32;;;;;;;;;;;;;;;18.92;58.46;96629.97;4967895;29;20014;-72
2023/07/08 05:20:58;;;;;;;;;;;;;;;18.99;57.36;96618.03;4966577;29;20003;-72
2023/07/08 05:23:24;;;;;;;;;;;;;;;19.12;56.52;96622.00;4967978;29;19958;-71
2023/07/08 05:25:50;;;;;;;;;;;;;;;19.31;56.31;96621.44;4967867;29;19958;-72
2023/07/08 05:28:16;;;;;;;;;;;;;;;19.50;56.26;96626.97;4967033;29;19948;-71
2023/07/08 05:30:41;;;;;;;;;;;;;;;19.59;54.98;96630.66;4966289;29;19958;-71
2023/07/08 05:33:08;;;;;;;;;;;;;;;19.61;54.97;96634.69;4967764;29;19999;-72
2023/07/08 05:35:34;;;;;;;;;;;;;;;19.65;55.08;96641.03;4966553;29;19967;-77
2023/07/08 05:37:59;;;;;;;;;;;;;;;19.65;54.97;96635.72;4967216;29;20139;-72
2023/07/08 05:40:25;;;;;;;;;;;;;;;19.61;55.58;96640.00;4950895;29;20224;-74
2023/07/08 05:42:51;;;;;;;;;;;;;;;19.64;56.20;96650.06;4966077;29;19954;-73
2023/07/08 05:45:17;;;;;;;;;;;;;;;19.63;55.16;96629.06;4967623;29;19958;-72
2023/07/08 05:47:43;;;;;;;;;;;;;;;19.64;55.80;96633.31;4967345;29;19979;-72
2023/07/08 05:50:09;;;;;;;;;;;;;;;19.67;55.73;96630.09;4967395;29;20015;-72
2023/07/08 05:52:34;;;;;;;;;;;;;;;19.71;57.43;96631.19;4967337;29;19962;-76
2023/07/08 05:55:00;;;;;;;;;;;;;;;19.74;57.12;96628.00;4967310;29;19955;-72
2023/07/08 05:57:26;;;;;;;;;;;;;;;19.76;55.88;96630.38;4949695;29;19959;-73
2023/07/08 05:59:52;;;;;;;;;;;;;;;19.79;56.70;96635.97;4950272;29;20023;-74
2023/07/08 06:02:21;;;;;;;;;;;;;;;19.80;55.56;96626.91;4966199;29;19956;-72
2023/07/08 06:04:47;;;;;;;;;;;;;;;19.83;56.79;96636.22;4966880;29;19956;-73
2023/07/08 06:07:13;;;;;;;;;;;;;;;19.89;56.90;96640.44;4965968;29;20146;-73
2023/07/08 06:09:39;;;;;;;;;;;;;;;19.92;57.50;96644.44;4966192;28;20150;-73
2023/07/08 06:12:05;;;;;;;;;;;;;;;19.94;56.60;96647.63;4966784;29;20003;-73
2023/07/08 06:14:31;;;;;;;;;;;;;;;19.95;56.49;96654.53;4965632;29;19967;-72
2023/07/08 06:16:57;;;;;;;;;;;;;;;19.95;55.35;96651.84;4965481;29;19950;-72
2023/07/08 06:19:23;;;;;;;;;;;;;;;19.93;56.50;96656.66;4949689;29;19975;-72
2023/07/08 06:21:49;;;;;;;;;;;;;;;19.91;56.80;96659.59;4966877;29;19954;-72
2023/07/08 06:24:15;;;;;;;;;;;;;;;19.91;57.56;96664.94;4966124;29;19961;-73
2023/07/08 06:26:41;;;;;;;;;;;;;;;19.90;57.14;96659.88;4965669;29;20219;-72
2023/07/08 06:29:07;;;;;;;;;;;;;;;19.89;57.10;96660.97;4966525;29;19966;-73
2023/07/08 06:31:33;;;;;;;;;;;;;;;19.92;57.94;96666.50;4949333;29;19970;-78
2023/07/08 06:34:00;;;;;;;;;;;;;;;19.92;56.63;96666.50;4949617;29;19967;-72
2023/07/08 06:36:26;;;;;;;;;;;;;;;19.96;57.31;96667.56;4966338;29;19963;-72
2023/07/08 06:38:52;;;;;;;;;;;;;;;19.98;58.30;96678.72;4966221;29;19958;-72
2023/07/08 06:41:17;;;;;;;;;;;;;;;20.02;57.65;96677.13;4966379;29;20005;-72
2023/07/08 06:43:43;;;;;;;;;;;;;;;20.04;57.58;96676.84;4965242;29;20012;-71
2023/07/08 06:46:09;;;;;;;;;;;;;;;20.04;56.63;96677.66;4949134;29;20004;-71
2023/07/08 06:48:35;;;;;;;;;;;;;;;20.05;57.71;96684.59;4949302;29;19967;-78
2023/07/08 06:51:01;;;;;;;;;;;;;;;20.11;57.27;96687.22;4966396;29;19993;-72
2023/07/08 06:53:27;;;;;;;;;;;;;;;20.17;57.39;96684.25;4966451;29;19956;-73
2023/07/08 06:55:53;;;;;;;;;;;;;;;20.23;57.22;96688.47;4964911;29;19971;-73
2023/07/08 06:58:19;;;;;;;;;;;;;;;20.28;57.02;96692.97;4965801;29;20955;-72
2023/07/08 07:00:45;;;;;;;;;;;;;;;20.30;57.82;96693.50;4966594;29;20287;-72
2023/07/08 07:03:11;;;;;;;;;;;;;;;20.32;57.54;96693.25;4964691;29;19965;-72
2023/07/08 07:05:36;;;;;;;;;;;;;;;20.33;56.89;96690.31;4966230;29;19959;-72
2023/07/08 07:08:02;;;;;;;;;;;;;;;20.39;57.04;96699.03;4966277;29;20225;-78
2023/07/08 07:10:28;;;;;;;;;;;;;;;20.42;57.42;96696.63;4964760;29;20146;-72
2023/07/08 07:12:54;;;;;;;;;;;;;;;20.50;57.38;96697.16;4965061;29;20118;-73
2023/07/08 07:15:20;;;;;;;;;;;;;;;20.61;60.11;96696.81;4965787;29;20250;-72
2023/07/08 07:17:46;;;;;;;;;;;;;;;20.68;57.45;96684.00;4948846;29;19963;-72
2023/07/08 07:20:12;;;;;;;;;;;;;;;20.76;57.70;96690.59;4967524;28;19963;-72
2023/07/08 07:22:38;;;;;;;;;;;;;;;20.84;56.83;96686.56;4968693;29;19983;-71
2023/07/08 07:25:04;;;;;;;;;;;;;;;20.91;56.81;96686.25;4969978;29;19980;-77
2023/07/08 07:27:30;;;;;;;;;;;;;;;20.96;56.14;96672.88;4969121;29;19944;-79
2023/07/08 07:29:59;;;;;;;;;;;;;;;21.02;56.80;96672.56;4969960;29;20140;-78
2023/07/08 07:32:25;;;;;;;;;;;;;;;21.10;57.06;96679.16;4968791;29;19966;-78
2023/07/08 07:34:51;;;;;;;;;;;;;;;21.15;59.08;96689.00;4969373;29;19953;-78
2023/07/08 07:37:18;;;;;;;;;;;;;;;21.14;56.76;96680.19;4968307;29;20157;-78
2023/07/08 07:39:44;;;;;;;;;;;;;;;21.15;57.30;96694.34;4969459;29;19961;-78
2023/07/08 07:42:11;;;;;;;;;;;;;;;21.14;56.91;96693.50;4969883;29;19958;-78
2023/07/08 07:44:39;;;;;;;;;;;;;;;21.16;58.03;96696.69;4969797;29;19963;-72
2023/07/08 07:47:05;;;;;;;;;;;;;;;21.21;57.17;96699.34;4968379;29;20219;-73
2023/07/08 07:49:31;;;;;;;;;;;;;;;21.29;57.81;96705.91;4968283;29;19956;-73
2023/07/08 07:51:57;;;;;;;;;;;;;;;21.36;59.61;96708.28;4969555;29;20010;-72
2023/07/08 07:54:23;;;;;;;;;;;;;;;21.35;56.76;96701.34;4952045;29;19967;-74
2023/07/08 07:56:49;;;;;;;;;;;;;;;21.36;57.03;96703.75;4969205;29;19962;-73
2023/07/08 07:59:15;;;;;;;;;;;;;;;21.41;57.90;96708.22;4952278;29;19978;-73
2023/07/08 08:01:43;;;;;;;;;;;;;;;21.44;56.51;96700.50;4969052;29;19955;-72
2023/07/08 08:04:10;;;;;;;;;;;;;;;21.48;55.98;96698.84;4951768;29;20271;-78
2023/07/08 08:06:36;;;;;;;;;;;;;;;21.51;55.94;96700.16;4952082;29;19956;-72
2023/07/08 08:09:02;;;;;;;;;;;;;;;21.54;56.04;96706.81;4951980;29;19984;-72
2023/07/08 08:11:28;;;;;;;;;;;;;;;21.59;55.38;96696.88;4967218;29;19961;-73
2023/07/08 08:13:54;;;;;;;;;;;;;;;21.68;55.55;96694.38;4966973;29;19961;-73
2023/07/08 08:16:20;;;;;;;;;;;;;;;21.95;55.76;96695.72;4967583;29;19976;-72
2023/07/08 08:18:46;;;;;;;;;;;;;;;22.29;53.41;96683.00;4951269;29;19981;-72
2023/07/08 08:21:13;;;;;;;;;;;;;;;22.43;54.64;96685.78;4966996;29;19962;-79
2023/07/08 08:23:39;;;;;;;;;;;;;;;22.56;53.59;96686.16;4968265;29;19966;-72
2023/07/08 08:26:05;;;;;;;;;;;;;;;22.73;53.28;96689.09;4951141;29;19944;-72
2023/07/08 08:28:31;;;;;;;;;;;;;;;23.15;52.27;96687.41;4951103;29;19962;-72
2023/07/08 08:30:56;;;;;;;;;;;;;;;23.55;51.46;96695.03;4966446;28;20010;-73
2023/07/08 08:33:22;;;;;;;;;;;;;;;23.88;51.71;96687.75;4965910;29;20013;-72
2023/07/08 08:35:48;;;;;;;;;;;;;;;24.31;50.68;96676.69;4968105;29;19988;-73
2023/07/08 08:38:14;;;;;;;;;;;;;;;24.51;49.08;96683.53;4966846;29;20282;-79
2023/07/08 08:40:41;;;;;;;;;;;;;;;24.53;49.63;96684.03;4950464;29;20263;-72
2023/07/08 08:43:13;;;;;;;;;;;;;;;24.51;48.96;96687.00;4951182;29;19971;-73
2023/07/08 08:45:45;;;;;;;;;;;;;;;24.44;48.47;96688.47;4950239;29;20251;-73
2023/07/08 08:48:15;;;;;;;;;;;;;;;24.40;49.49;96693.66;4950528;29;19959;-72
2023/07/08 08:50:50;;;;;;;;;;;;;;;24.42;49.30;96694.16;4967803;29;19962;-73
2023/07/08 08:53:17;;;;;;;;;;;;;;;24.41;48.24;96692.56;4968075;29;20231;-73
2023/07/08 08:55:46;;;;;;;;;;;;;;;24.50;46.51;96690.75;4966103;29;19978;-72
2023/07/08 08:58:22;;;;;;;;;;;;;;;24.64;48.05;96692.63;4967301;29;20057;-72
2023/07/08 09:00:58;;;;;;;;;;;;;;;24.94;45.96;96690.34;4967791;29;19961;-78
2023/07/08 09:03:24;;;;;;;;;;;;;;;25.23;45.95;96693.41;4967984;29;20139;-78
2023/07/08 09:05:50;;;;;;;;;;;;;;;25.60;46.01;96693.28;4966553;29;20027;-78
2023/07/08 09:08:20;;;;;;;;;;;;;;;25.98;46.08;96690.16;4966160;29;20089;-78
2023/07/08 09:10:47;;;;;;;;;;;;;;;26.18;42.97;96692.25;4950233;29;19961;-78
2023/07/08 09:13:33;;;;;;;;;;;;;;;26.30;44.22;96687.06;4967399;29;19962;-78
2023/07/08 09:16:06;;;;;;;;;;;;;;;26.56;43.64;96689.00;4967493;29;20126;-72
2023/07/08 09:18:50;;;;;;;;;;;;;;;26.82;41.83;96683.66;5101862;28;19952;-77
2023/07/08 09:21:20;;;;;;;;;;;;;;;27.03;42.41;96685.72;5100438;28;20108;-76
2023/07/08 09:23:50;;;;;;;;;;;;;;;27.28;42.11;96682.22;5101632;28;19937;-76
2023/07/08 09:26:22;;;;;;;;;;;;;;;27.57;41.17;96680.69;5100901;28;19948;-76
2023/07/08 09:28:47;;;;;;;;;;;;;;;27.54;37.55;96684.03;5101188;28;20124;-76
2023/07/08 09:31:32;;;;;;;;;;;;;;;27.40;37.85;96683.44;5101411;28;19942;-76
2023/07/08 09:34:24;;;;;;;;;;;;;;;27.43;38.80;96683.59;5102319;28;19943;-71
2023/07/08 09:36:51;;;;;;;;;;;;;;;27.57;38.60;96680.69;5084278;28;20150;-80
2023/07/08 09:39:17;;;;;;;;;;;;;;;27.60;38.36;96682.75;5101398;28;19945;-80
2023/07/08 09:41:44;;;;;;;;;;;;;;;27.67;38.16;96684.94;5100971;28;19941;-79
2023/07/08 09:44:14;;;;;;;;;;;;;;;27.83;36.69;96679.81;5101338;28;20223;-82
2023/07/08 09:46:40;;;;;;;;;;;;;;;28.09;37.51;96685.88;5100071;28;20117;-80
2023/07/08 09:49:16;;;;;;;;;;;;;;;28.30;37.12;96672.44;5101208;28;19943;-79
2023/07/08 09:51:42;;;;;;;;;;;;;;;28.50;37.82;96681.69;5101926;28;19944;-71
2023/07/08 09:54:08;;;;;;;;;;;;;;;28.66;38.39;96681.09;5101691;28;19936;-72
2023/07/08 09:56:34;;;;;;;;;;;;;;;28.71;38.34;96694.41;5099726;28;19966;-73
2023/07/08 09:59:01;;;;;;;;;;;;;;;28.65;37.89;96693.03;5100609;28;19985;-73
2023/07/08 10:01:28;;;;;;;;;;;;;;;28.77;38.17;96682.31;5082960;28;19942;-74
2023/07/08 10:03:59;;;;;;;;;;;;;;;28.91;38.47;96682.00;5083630;28;19945;-74
2023/07/08 10:06:26;;;;;;;;;;;;;;;28.90;37.74;96673.13;5083560;28;19943;-74
2023/07/08 10:09:00;;;;;;;;;;;;;;;28.98;38.33;96679.56;5082775;28;20138;-74
2023/07/08 10:11:28;;;;;;;;;;;;;;;29.08;38.21;96678.34;5099686;28;19932;-78
2023/07/08 10:13:57;;;;;;;;;;;;;;;29.16;37.67;96677.53;5100699;28;19943;-72
2023/07/08 10:16:25;;;;;;;;;;;;;;;29.28;37.60;96685.66;5100637;28;19936;-73
2023/07/08 10:18:51;;;;;;;;;;;;;;;29.31;36.66;96679.56;5119829;28;20156;-73
2023/07/08 10:21:26;;;;;;;;;;;;;;;29.46;37.43;96677.34;5120984;28;19941;-72
2023/07/08 10:23:58;;;;;;;;;;;;;;;29.44;35.95;96685.00;5119804;28;19933;-72
2023/07/08 10:26:24;;;;;;;;;;;;;;;29.50;36.88;96680.97;5119723;28;19945;-73
2023/07/08 10:28:54;;;;;;;;;;;;;;;29.64;36.27;96681.44;5097368;28;20161;-74
2023/07/08 10:31:20;;;;;;;;;;;;;;;29.69;34.97;96675.84;5107215;28;19951;-72
2023/07/08 10:33:51;;;;;;;;;;;;;;;29.66;35.34;96678.41;5089819;28;19948;-80
2023/07/08 10:36:25;;;;;;;;;;;;;;;29.74;35.17;96672.16;5107369;28;19940;-81
2023/07/08 10:39:11;;;;;;;;;;;;;;;29.90;34.51;96667.66;5108074;28;19981;-81
2023/07/08 10:41:36;;;;;;;;;;;;;;;30.00;34.95;96671.03;5106575;28;19955;-81
2023/07/08 10:44:15;;;;;;;;;;;;;;;30.09;33.58;96668.97;5107427;28;19942;-80
2023/07/08 10:46:46;;;;;;;;;;;;;;;30.24;34.11;96676.41;5107384;28;19933;-75
2023/07/08 10:49:12;;;;;;;;;;;;;;;30.50;34.82;96677.97;5089021;28;19942;-81
2023/07/08 10:51:55;;;;;;;;;;;;;;;30.73;33.46;96673.63;5088738;28;19945;-77
2023/07/08 10:54:42;;;;;;;;;;;;;;;30.98;34.37;96667.38;5107390;28;20225;-77
2023/07/08 10:57:08;;;;;;;;;;;;;;;31.20;34.17;96666.78;5106251;28;19964;-76
2023/07/08 10:59:52;;;;;;;;;;;;;;;31.28;31.91;96662.34;5105471;28;20203;-77
2023/07/08 11:02:27;;;;;;;;;;;;;;;31.25;32.25;96663.06;5107154;28;19938;-77
2023/07/08 11:05:09;;;;;;;;;;;;;;;31.28;33.41;96662.34;5088486;28;19940;-77
2023/07/08 11:07:47;;;;;;;;;;;;;;;31.41;32.97;96666.53;5106222;28;19939;-80
2023/07/08 11:10:20;;;;;;;;;;;;;;;31.54;30.90;96662.66;5106470;28;19940;-77
2023/07/08 11:12:57;;;;;;;;;;;;;;;31.53;31.60;96663.00;5088296;28;19944;-77
2023/07/08 11:15:43;;;;;;;;;;;;;;;31.64;30.71;96657.84;5106520;28;19942;-77
2023/07/08 11:18:38;;;;;;;;;;;;;;;31.82;30.41;96652.88;5104538;28;19974;-76
2023/07/08 11:21:10;;;;;;;;;;;;;;;31.93;29.87;96656.59;5087934;28;19945;-76
2023/07/08 11:23:48;;;;;;;;;;;;;;;32.03;30.07;96653.38;5106926;28;19945;-72
2023/07/08 11:26:23;;;;;;;;;;;;;;;32.22;29.13;96654.56;5105545;28;20240;-81
2023/07/08 11:28:51;;;;;;;;;;;;;;;32.40;29.50;96646.81;5088016;28;19947;-76
2023/07/08 11:31:17;;;;;;;;;;;;;;;32.56;28.05;96647.56;5106038;28;19944;-77
2023/07/08 11:33:44;;;;;;;;;;;;;;;32.70;28.60;96641.66;5088717;28;19947;-76
2023/07/08 11:36:10;;;;;;;;;;;;;;;32.83;28.47;96639.56;5104886;28;19946;-76
2023/07/08 11:38:38;;;;;;;;;;;;;;;32.90;27.55;96642.41;5104679;28;19959;-76
2023/07/08 11:41:11;;;;;;;;;;;;;;;32.88;26.96;96634.63;5104824;28;19944;-76
2023/07/08 11:43:51;;;;;;;;;;;;;;;32.87;28.12;96632.28;5105448;28;19941;-72
2023/07/08 11:46:21;;;;;;;;;;;;;;;32.94;28.56;96624.25;5106339;28;19946;-73
2023/07/08 11:48:50;;;;;;;;;;;;;;;33.04;27.81;96620.94;5088463;28;19940;-73
2023/07/08 11:51:28;;;;;;;;;;;;;;;33.16;26.78;96620.03;5104845;28;19941;-73
2023/07/08 11:54:20;;;;;;;;;;;;;;;33.08;26.51;96619.13;5104763;28;19944;-73
2023/07/08 11:56:49;;;;;;;;;;;;;;;33.04;25.92;96620.16;5102475;28;19983;-73
2023/07/08 11:59:19;;;;;;;;;;;;;;;32.97;26.36;96613.47;5104329;28;19944;-74
2023/07/08 12:01:53;;;;;;;;;;;;;;;33.03;27.67;96613.16;5105066;28;19945;-76
2023/07/08 12:04:22;;;;;;;;;;;;;;;33.07;27.35;96605.84;5105467;28;20122;-73
2023/07/08 12:06:49;;;;;;;;;;;;;;;33.06;25.35;96605.06;5087997;28;19939;-72
2023/07/08 12:09:26;;;;;;;;;;;;;;;32.95;26.38;96604.09;5104175;28;19942;-73
2023/07/08 12:11:59;;;;;;;;;;;;;;;32.95;27.04;96602.16;5104898;28;19945;-73
2023/07/08 12:14:25;;;;;;;;;;;;;;;33.17;25.62;96600.63;5105681;28;19940;-75
2023/07/08 12:16:51;;;;;;;;;;;;;;;33.41;26.75;96603.34;5104981;28;19965;-73
2023/07/08 12:19:19;;;;;;;;;;;;;;;33.49;25.65;96616.69;5104997;28;20253;-73
2023/07/08 12:21:45;;;;;;;;;;;;;;;33.39;25.71;96605.66;5087788;28;19948;-76
2023/07/08 12:24:12;;;;;;;;;;;;;;;33.51;25.75;96597.31;5104701;28;20105;-77
2023/07/08 12:26:39;;;;;;;;;;;;;;;33.63;25.98;96590.91;5104907;28;19943;-76
2023/07/08 12:29:05;;;;;;;;;;;;;;;33.72;24.38;96594.94;5104951;28;19936;-77
2023/07/08 12:31:33;;;;;;;;;;;;;;;33.71;24.60;96601.53;5105453;28;19940;-77
2023/07/08 12:33:59;;;;;;;;;;;;;;;33.79;24.66;96597.00;5104788;28;20126;-77
2023/07/08 12:36:27;;;;;;;;;;;;;;;33.75;24.25;96590.72;5083407;28;20134;-78
2023/07/08 12:38:54;;;;;;;;;;;;;;;33.72;23.46;96589.50;5082954;28;19954;-77
2023/07/08 12:41:22;;;;;;;;;;;;;;;33.83;23.60;96591.59;5083215;28;19944;-73
2023/07/08 12:43:48;;;;;;;;;;;;;;;33.78;24.39;96591.91;5050064;28;19944;-73
2023/07/08 12:46:16;;;;;;;;;;;;;;;33.91;25.48;96585.09;5082831;28;20257;-73
2023/07/08 12:48:41;;;;;;;;;;;;;;;33.99;25.64;96597.66;5082497;28;20164;-72
2023/07/08 12:51:11;;;;;;;;;;;;;;;33.84;25.09;96591.22;5066189;28;19939;-72
2023/07/08 12:53:37;;;;;;;;;;;;;;;33.59;25.17;96587.34;5082501;28;19934;-73